Time;durP1;ratioP1;P1;durP2;ratioP2;P2;SDS_P1;SDS_P2;PMS_P1;PMS_P2;Temp;Humidity;BMP_temperature;BMP_pressure;BME280_temperature;BME280_humidity;BME280_pressure;Samples;Min_cycle;Max_cycle;Signal;HPM_P1;HPM_P2
2023/04/18 00:00:11;;;;;;;;;;;;;;;20.52;39.71;102745.25;5127139;27;19957;-69
2023/04/18 00:02:38;;;;;;;;;;;;;;;20.51;39.63;102743.53;5134151;27;19955;-69
2023/04/18 00:05:04;;;;;;;;;;;;;;;20.49;39.76;102737.41;5101706;27;19915;-69
2023/04/18 00:07:29;;;;;;;;;;;;;;;20.49;39.98;102736.56;5128206;27;19916;-69
2023/04/18 00:09:54;;;;;;;;;;;;;;;20.46;39.87;102741.19;5113997;27;20280;-69
2023/04/18 00:12:20;;;;;;;;;;;;;;;20.45;39.88;102742.19;5134686;27;19930;-70
2023/04/18 00:14:45;;;;;;;;;;;;;;;20.44;39.75;102739.63;5131440;27;19955;-69
2023/04/18 00:17:12;;;;;;;;;;;;;;;20.43;39.92;102740.59;5135293;27;20088;-69
2023/04/18 00:19:40;;;;;;;;;;;;;;;20.41;39.84;102738.06;5130543;27;19982;-69
2023/04/18 00:22:06;;;;;;;;;;;;;;;20.40;39.60;102743.59;5134522;27;19918;-69
2023/04/18 00:24:31;;;;;;;;;;;;;;;20.39;39.91;102744.56;5132504;27;19911;-69
2023/04/18 00:26:57;;;;;;;;;;;;;;;20.37;39.86;102747.41;5117389;27;19916;-69
2023/04/18 00:29:22;;;;;;;;;;;;;;;20.37;39.88;102747.41;5131455;27;19934;-69
2023/04/18 00:31:47;;;;;;;;;;;;;;;20.35;39.79;102749.41;5130377;27;19975;-69
2023/04/18 00:34:12;;;;;;;;;;;;;;;20.34;39.75;102746.81;5129930;27;19919;-69
2023/04/18 00:36:37;;;;;;;;;;;;;;;20.31;39.76;102742.56;5130485;27;20323;-69
2023/04/18 00:39:03;;;;;;;;;;;;;;;20.29;39.89;102739.13;5133508;27;19972;-69
2023/04/18 00:41:28;;;;;;;;;;;;;;;20.27;39.93;102738.41;5106902;28;19912;-69
2023/04/18 00:43:53;;;;;;;;;;;;;;;20.27;39.72;102734.84;5116633;27;20548;-69
2023/04/18 00:46:18;;;;;;;;;;;;;;;20.26;39.72;102742.06;5133823;27;19912;-69
2023/04/18 00:48:44;;;;;;;;;;;;;;;20.25;39.88;102739.53;5112558;28;19923;-69
2023/04/18 00:51:09;;;;;;;;;;;;;;;20.24;39.73;102741.38;5118253;27;20609;-69
2023/04/18 00:53:34;;;;;;;;;;;;;;;20.22;39.90;102737.97;5126113;28;19912;-69
2023/04/18 00:56:00;;;;;;;;;;;;;;;20.20;39.71;102737.22;5113982;27;19926;-70
2023/04/18 00:58:25;;;;;;;;;;;;;;;20.20;39.96;102737.22;5111104;28;19912;-70
2023/04/18 01:00:50;;;;;;;;;;;;;;;20.19;39.90;102740.91;5122720;28;19919;-70
2023/04/18 01:03:17;;;;;;;;;;;;;;;20.17;39.97;102732.06;5131497;27;19912;-69
2023/04/18 01:05:43;;;;;;;;;;;;;;;20.16;39.83;102727.66;5130973;27;19979;-69
2023/04/18 01:08:08;;;;;;;;;;;;;;;20.14;39.74;102721.56;5109948;28;19919;-69
2023/04/18 01:10:34;;;;;;;;;;;;;;;20.13;40.00;102730.63;5134333;28;19911;-69
2023/04/18 01:13:10;;;;;;;;;;;;;;;20.12;39.90;102737.03;5124581;28;19969;-69
2023/04/18 01:15:35;;;;;;;;;;;;;;;20.11;39.97;102738.03;5123787;28;19955;-69
2023/04/18 01:18:02;;;;;;;;;;;;;;;20.09;39.77;102730.06;5137751;28;19916;-69
2023/04/18 01:20:27;;;;;;;;;;;;;;;20.08;39.97;102727.47;5110858;28;19927;-69
2023/04/18 01:22:52;;;;;;;;;;;;;;;20.07;39.87;102729.31;5125351;28;19912;-69
2023/04/18 01:25:17;;;;;;;;;;;;;;;20.06;39.85;102724.06;5113322;28;19971;-69
2023/04/18 01:27:43;;;;;;;;;;;;;;;20.04;39.95;102721.47;5128413;28;19916;-72
2023/04/18 01:30:08;;;;;;;;;;;;;;;20.04;39.78;102721.47;5112574;28;19919;-69
2023/04/18 01:32:33;;;;;;;;;;;;;;;20.02;39.93;102717.22;5129415;28;19950;-69
2023/04/18 01:34:58;;;;;;;;;;;;;;;20.01;40.03;102718.19;5129536;28;19919;-69
2023/04/18 01:37:24;;;;;;;;;;;;;;;19.97;39.80;102710.38;5129296;28;19920;-69
2023/04/18 01:39:49;;;;;;;;;;;;;;;19.98;39.81;102714.78;5135733;28;20018;-68
2023/04/18 01:42:14;;;;;;;;;;;;;;;19.96;39.76;102714.06;5127915;28;19912;-69
2023/04/18 01:44:39;;;;;;;;;;;;;;;19.95;39.69;102715.03;5136217;27;19916;-69
2023/04/18 01:47:04;;;;;;;;;;;;;;;19.93;39.83;102719.72;5131495;28;20305;-70
2023/04/18 01:49:30;;;;;;;;;;;;;;;19.92;39.78;102718.00;5132953;27;19922;-69
2023/04/18 01:51:55;;;;;;;;;;;;;;;19.92;39.78;102717.13;5119706;27;19915;-70
2023/04/18 01:54:20;;;;;;;;;;;;;;;19.91;39.83;102715.41;5133962;27;19953;-69
2023/04/18 01:56:45;;;;;;;;;;;;;;;19.90;39.69;102708.31;5132201;27;19950;-69
2023/04/18 01:59:10;;;;;;;;;;;;;;;19.88;40.06;102716.56;5131572;27;19943;-70
2023/04/18 02:01:35;;;;;;;;;;;;;;;19.88;39.96;102721.97;5136386;27;20527;-70
2023/04/18 02:04:01;;;;;;;;;;;;;;;19.86;40.05;102714.97;5132417;27;19986;-70
2023/04/18 02:06:26;;;;;;;;;;;;;;;19.84;39.99;102716.94;5120456;27;19975;-70
2023/04/18 02:08:51;;;;;;;;;;;;;;;19.84;39.94;102719.66;5133367;27;19946;-70
2023/04/18 02:11:16;;;;;;;;;;;;;;;19.84;39.88;102716.94;5138748;27;19954;-70
2023/04/18 02:13:41;;;;;;;;;;;;;;;19.82;39.86;102717.06;5119209;27;19919;-70
2023/04/18 02:16:11;;;;;;;;;;;;;;;19.80;40.06;102716.34;5133352;27;19922;-70
2023/04/18 02:18:38;;;;;;;;;;;;;;;19.79;40.06;102714.63;5137722;27;19971;-70
2023/04/18 02:21:04;;;;;;;;;;;;;;;19.78;40.04;102715.63;5131813;27;19915;-70
2023/04/18 02:23:29;;;;;;;;;;;;;;;19.78;39.90;102714.75;5134218;27;19911;-70
2023/04/18 02:25:54;;;;;;;;;;;;;;;19.77;39.96;102710.34;5133125;27;19934;-70
2023/04/18 02:28:19;;;;;;;;;;;;;;;19.75;39.97;102715.00;5133886;27;19915;-70
2023/04/18 02:30:44;;;;;;;;;;;;;;;19.73;40.11;102707.06;5134911;27;19968;-70
2023/04/18 02:33:10;;;;;;;;;;;;;;;19.72;39.99;102716.16;5134093;27;19911;-70
2023/04/18 02:35:36;;;;;;;;;;;;;;;19.72;40.04;102718.84;5133703;27;19961;-70
2023/04/18 02:38:01;;;;;;;;;;;;;;;19.70;40.08;102712.72;5127130;27;19915;-70
2023/04/18 02:40:26;;;;;;;;;;;;;;;19.68;40.01;102714.69;5126982;27;19922;-70
2023/04/18 02:42:51;;;;;;;;;;;;;;;19.66;39.84;102717.50;5131431;27;19912;-70
2023/04/18 02:45:16;;;;;;;;;;;;;;;19.66;39.83;102719.34;5139303;27;19915;-70
2023/04/18 02:47:43;;;;;;;;;;;;;;;19.64;39.71;102713.25;5136552;27;20383;-70
2023/04/18 02:50:08;;;;;;;;;;;;;;;19.64;40.02;102715.94;5132486;27;19912;-70
2023/04/18 02:52:33;;;;;;;;;;;;;;;19.62;40.09;102712.50;5127594;27;19915;-70
2023/04/18 02:54:58;;;;;;;;;;;;;;;19.62;40.05;102709.81;5133364;27;19912;-70
2023/04/18 02:57:24;;;;;;;;;;;;;;;19.59;40.11;102721.69;5132563;27;19935;-70
2023/04/18 02:59:49;;;;;;;;;;;;;;;19.59;40.06;102710.06;5131054;27;19916;-70
2023/04/18 03:02:14;;;;;;;;;;;;;;;19.57;39.96;102712.00;5134799;27;19920;-70
2023/04/18 03:04:40;;;;;;;;;;;;;;;19.56;40.12;102713.84;5131690;27;19912;-70
2023/04/18 03:07:05;;;;;;;;;;;;;;;19.55;39.77;102708.59;5137322;27;19911;-70
2023/04/18 03:09:30;;;;;;;;;;;;;;;19.54;39.75;102712.25;5132297;27;20387;-70
2023/04/18 03:11:55;;;;;;;;;;;;;;;19.53;39.88;102706.00;5139768;27;19919;-70
2023/04/18 03:14:20;;;;;;;;;;;;;;;19.51;39.82;102713.38;5134857;27;19920;-70
2023/04/18 03:16:46;;;;;;;;;;;;;;;19.51;39.62;102712.53;5133294;27;19927;-70
2023/04/18 03:19:11;;;;;;;;;;;;;;;19.50;40.00;102711.69;5133194;27;19916;-70
2023/04/18 03:21:36;;;;;;;;;;;;;;;19.49;39.93;102707.25;5130997;27;20376;-70
2023/04/18 03:24:01;;;;;;;;;;;;;;;19.48;39.66;102706.38;5131554;27;19934;-70
2023/04/18 03:26:27;;;;;;;;;;;;;;;19.47;39.75;102710.09;5131967;27;19920;-70
2023/04/18 03:28:52;;;;;;;;;;;;;;;19.46;39.98;102710.22;5134404;27;19919;-70
2023/04/18 03:31:17;;;;;;;;;;;;;;;19.45;40.04;102712.06;5132038;27;19912;-70
2023/04/18 03:33:44;;;;;;;;;;;;;;;19.44;39.78;102722.97;5131613;27;19938;-70
2023/04/18 03:36:10;;;;;;;;;;;;;;;19.43;40.07;102711.31;5133814;27;19919;-70
2023/04/18 03:38:35;;;;;;;;;;;;;;;19.42;39.92;102714.16;5134270;27;20393;-70
2023/04/18 03:41:00;;;;;;;;;;;;;;;19.41;40.09;102713.31;5115313;27;19911;-70
2023/04/18 03:43:25;;;;;;;;;;;;;;;19.40;39.88;102714.28;5131305;27;19923;-70
2023/04/18 03:45:51;;;;;;;;;;;;;;;19.40;39.85;102718.81;5118590;27;19930;-70
2023/04/18 03:48:16;;;;;;;;;;;;;;;19.39;40.03;102714.41;5129172;27;19981;-70
2023/04/18 03:50:41;;;;;;;;;;;;;;;19.37;39.83;102717.25;5135851;27;19916;-71
2023/04/18 03:53:06;;;;;;;;;;;;;;;19.37;40.01;102719.06;5132310;27;19916;-70
2023/04/18 03:55:32;;;;;;;;;;;;;;;19.35;39.90;102716.50;5131984;27;19980;-70
2023/04/18 03:57:58;;;;;;;;;;;;;;;19.34;39.83;102728.28;5128476;27;19920;-71
2023/04/18 04:00:23;;;;;;;;;;;;;;;19.34;40.22;102727.44;5114538;27;19911;-70
2023/04/18 04:02:48;;;;;;;;;;;;;;;19.33;40.09;102723.03;5131882;27;19944;-70
2023/04/18 04:05:13;;;;;;;;;;;;;;;19.32;40.05;102715.88;5131697;27;19923;-70
2023/04/18 04:07:38;;;;;;;;;;;;;;;19.31;39.88;102715.03;5138339;27;19912;-71
2023/04/18 04:10:04;;;;;;;;;;;;;;;19.30;40.12;102720.56;5130852;27;19912;-71
2023/04/18 04:12:29;;;;;;;;;;;;;;;19.30;40.07;102720.56;5133041;27;19926;-70
2023/04/18 04:14:55;;;;;;;;;;;;;;;19.30;40.26;102720.56;5132802;27;19912;-71
2023/04/18 04:17:20;;;;;;;;;;;;;;;19.28;40.16;102719.81;5131430;27;19935;-71
2023/04/18 04:19:45;;;;;;;;;;;;;;;19.29;40.20;102724.25;5130565;27;19979;-70
2023/04/18 04:22:10;;;;;;;;;;;;;;;19.28;40.02;102720.69;5129287;27;19916;-70
2023/04/18 04:24:37;;;;;;;;;;;;;;;19.28;40.06;102727.91;5132112;27;19912;-70
2023/04/18 04:27:02;;;;;;;;;;;;;;;19.28;40.16;102720.69;5130659;27;19922;-71
2023/04/18 04:29:28;;;;;;;;;;;;;;;19.29;40.17;102725.13;5114272;27;19959;-70
2023/04/18 04:31:53;;;;;;;;;;;;;;;19.29;40.50;102726.97;5135349;27;19916;-70
2023/04/18 04:34:18;;;;;;;;;;;;;;;19.28;40.29;102726.06;5133334;27;19916;-70
2023/04/18 04:36:44;;;;;;;;;;;;;;;19.29;40.28;102724.25;5137014;27;19930;-70
2023/04/18 04:39:10;;;;;;;;;;;;;;;19.28;40.06;102726.06;5133878;27;20588;-70
2023/04/18 04:41:38;;;;;;;;;;;;;;;19.28;40.28;102727.91;5133316;27;19919;-69
2023/04/18 04:44:03;;;;;;;;;;;;;;;19.28;40.77;102730.63;5131505;27;19922;-70
2023/04/18 04:46:29;;;;;;;;;;;;;;;19.28;40.79;102734.16;5126633;27;19915;-68
2023/04/18 04:48:55;;;;;;;;;;;;;;;19.29;40.99;102737.75;5112541;28;19934;-68
2023/04/18 04:51:20;;;;;;;;;;;;;;;19.28;40.89;102739.56;5129051;27;20671;-67
2023/04/18 04:53:45;;;;;;;;;;;;;;;19.28;41.04;102736.88;5130725;27;19912;-68
2023/04/18 04:56:11;;;;;;;;;;;;;;;19.29;40.98;102741.28;5132193;27;19916;-69
2023/04/18 04:58:36;;;;;;;;;;;;;;;19.29;41.00;102744.00;5116783;27;19991;-68
2023/04/18 05:01:01;;;;;;;;;;;;;;;19.29;41.16;102749.38;5134537;27;19912;-69
2023/04/18 05:03:27;;;;;;;;;;;;;;;19.28;41.23;102739.56;5131731;27;19925;-68
2023/04/18 05:05:52;;;;;;;;;;;;;;;19.29;41.23;102743.13;5132817;27;19912;-69
2023/04/18 05:08:17;;;;;;;;;;;;;;;19.29;41.20;102745.84;5129155;27;19919;-69
2023/04/18 05:10:43;;;;;;;;;;;;;;;19.29;41.46;102743.13;5131056;27;19979;-68
2023/04/18 05:13:08;;;;;;;;;;;;;;;19.28;41.38;102744.94;5129225;28;19969;-72
2023/04/18 05:15:33;;;;;;;;;;;;;;;19.28;41.21;102742.25;5129543;28;19915;-71
2023/04/18 05:17:58;;;;;;;;;;;;;;;19.28;41.29;102752.19;5130465;28;19934;-68
2023/04/18 05:20:23;;;;;;;;;;;;;;;19.29;41.49;102743.13;5131067;28;19915;-68
2023/04/18 05:22:49;;;;;;;;;;;;;;;19.28;41.34;102747.66;5128638;28;19941;-68
2023/04/18 05:25:14;;;;;;;;;;;;;;;19.28;41.44;102741.41;5132759;27;20430;-68
2023/04/18 05:27:40;;;;;;;;;;;;;;;19.28;41.14;102746.78;5137571;27;19918;-70
2023/04/18 05:30:05;;;;;;;;;;;;;;;19.27;41.38;102750.47;5114707;27;19916;-71
2023/04/18 05:32:30;;;;;;;;;;;;;;;19.27;41.21;102747.78;5137574;27;19972;-71
2023/04/18 05:34:56;;;;;;;;;;;;;;;19.28;41.40;102749.50;5140184;27;19918;-69
2023/04/18 05:37:21;;;;;;;;;;;;;;;19.28;41.69;102752.19;5134069;27;19927;-68
2023/04/18 05:39:46;;;;;;;;;;;;;;;19.27;41.43;102759.44;5134211;27;19980;-68
2023/04/18 05:42:11;;;;;;;;;;;;;;;19.27;41.47;102756.72;5120783;27;19950;-73
2023/04/18 05:44:37;;;;;;;;;;;;;;;19.27;41.53;102756.72;5118105;27;19982;-74
2023/04/18 05:47:05;;;;;;;;;;;;;;;19.27;41.36;102763.97;5133588;27;19916;-70
2023/04/18 05:49:30;;;;;;;;;;;;;;;19.26;41.49;102757.72;5133542;27;19916;-73
2023/04/18 05:51:56;;;;;;;;;;;;;;;19.26;41.39;102757.72;5133305;27;20707;-73
2023/04/18 05:54:21;;;;;;;;;;;;;;;19.26;41.21;102757.72;5134842;27;19933;-73
2023/04/18 05:56:47;;;;;;;;;;;;;;;19.26;41.24;102764.97;5135614;27;19930;-73
2023/04/18 05:59:12;;;;;;;;;;;;;;;19.25;41.00;102763.25;5120189;27;19954;-73
2023/04/18 06:01:38;;;;;;;;;;;;;;;19.25;41.20;102768.66;5115624;27;19915;-73
2023/04/18 06:04:03;;;;;;;;;;;;;;;19.25;41.31;102764.09;5136625;27;19911;-74
2023/04/18 06:06:28;;;;;;;;;;;;;;;19.25;41.05;102761.41;5118936;27;20351;-73
2023/04/18 06:08:53;;;;;;;;;;;;;;;19.24;41.08;102765.06;5115566;28;19912;-74
2023/04/18 06:11:20;;;;;;;;;;;;;;;19.24;41.17;102765.06;5133810;27;19920;-73
2023/04/18 06:13:45;;;;;;;;;;;;;;;19.24;41.12;102767.75;5118793;27;19919;-71
2023/04/18 06:16:10;;;;;;;;;;;;;;;19.24;40.85;102775.84;5115957;27;19955;-71
2023/04/18 06:18:35;;;;;;;;;;;;;;;19.24;41.12;102773.16;5115208;27;19942;-71
2023/04/18 06:21:00;;;;;;;;;;;;;;;19.25;41.03;102771.34;5137337;27;19922;-71
2023/04/18 06:23:26;;;;;;;;;;;;;;;19.25;41.10;102780.28;5134924;27;19918;-71
2023/04/18 06:25:51;;;;;;;;;;;;;;;19.24;40.87;102770.47;5133623;27;19915;-71
2023/04/18 06:28:16;;;;;;;;;;;;;;;19.26;40.93;102775.75;5138945;27;19971;-71
2023/04/18 06:30:41;;;;;;;;;;;;;;;19.25;41.25;102772.19;5138608;27;19918;-71
2023/04/18 06:33:09;;;;;;;;;;;;;;;19.24;40.99;102781.25;5133263;27;19939;-71
2023/04/18 06:35:35;;;;;;;;;;;;;;;19.23;40.85;102771.44;5115378;28;19916;-72
2023/04/18 06:38:00;;;;;;;;;;;;;;;19.25;40.90;102785.69;5113254;28;19918;-71
2023/04/18 06:40:25;;;;;;;;;;;;;;;19.23;41.05;102774.16;5133338;27;19970;-70
2023/04/18 06:42:50;;;;;;;;;;;;;;;19.25;40.97;102771.34;5134628;27;19912;-71
2023/04/18 06:45:16;;;;;;;;;;;;;;;19.23;40.91;102777.69;5136499;27;19912;-69
2023/04/18 06:47:41;;;;;;;;;;;;;;;19.23;40.88;102772.28;5128215;27;19922;-69
2023/04/18 06:50:06;;;;;;;;;;;;;;;19.23;40.98;102780.38;5134239;27;19967;-69
2023/04/18 06:52:31;;;;;;;;;;;;;;;19.22;41.04;102778.69;5134095;27;19912;-69
2023/04/18 06:54:57;;;;;;;;;;;;;;;19.22;40.77;102777.81;5133819;27;19931;-69
2023/04/18 06:57:22;;;;;;;;;;;;;;;19.22;40.68;102791.31;5140631;27;20303;-69
2023/04/18 06:59:47;;;;;;;;;;;;;;;19.22;40.66;102784.06;5131310;27;19964;-69
2023/04/18 07:02:12;;;;;;;;;;;;;;;19.23;40.61;102779.53;5138847;27;19911;-70
2023/04/18 07:04:37;;;;;;;;;;;;;;;19.23;40.71;102790.31;5122582;27;19915;-69
2023/04/18 07:07:04;;;;;;;;;;;;;;;19.23;40.61;102783.09;5131603;27;20372;-70
2023/04/18 07:09:29;;;;;;;;;;;;;;;19.23;40.98;102777.69;5129508;27;19918;-70
2023/04/18 07:11:54;;;;;;;;;;;;;;;19.25;40.88;102785.69;5131717;27;19915;-67
2023/04/18 07:14:20;;;;;;;;;;;;;;;19.27;40.98;102780.16;5131230;27;19958;-69
2023/04/18 07:16:46;;;;;;;;;;;;;;;19.28;41.18;102776.47;5133574;27;19919;-67
2023/04/18 07:19:11;;;;;;;;;;;;;;;19.28;41.12;102787.25;5112736;27;19915;-67
2023/04/18 07:21:39;;;;;;;;;;;;;;;19.29;41.28;102789.84;5134264;27;20281;-67
2023/04/18 07:24:04;;;;;;;;;;;;;;;19.30;41.27;102798.78;5118101;27;19923;-68
2023/04/18 07:26:29;;;;;;;;;;;;;;;19.31;41.40;102801.34;5135465;27;19967;-68
2023/04/18 07:28:54;;;;;;;;;;;;;;;19.33;41.24;102798.53;5139154;27;19955;-68
2023/04/18 07:31:20;;;;;;;;;;;;;;;19.33;41.41;102795.84;5135897;27;19919;-67
2023/04/18 07:33:45;;;;;;;;;;;;;;;19.34;41.40;102798.41;5130703;27;20380;-68
2023/04/18 07:36:10;;;;;;;;;;;;;;;19.37;41.36;102810.75;5132049;27;19937;-67
2023/04/18 07:38:35;;;;;;;;;;;;;;;19.38;41.65;102809.81;5128773;27;19975;-67
2023/04/18 07:41:01;;;;;;;;;;;;;;;19.38;41.38;102804.41;5115314;28;19923;-68
2023/04/18 07:43:26;;;;;;;;;;;;;;;19.39;41.39;102812.38;5133534;27;19961;-67
2023/04/18 07:45:51;;;;;;;;;;;;;;;19.39;41.26;102817.75;5136018;27;19915;-68
2023/04/18 07:48:16;;;;;;;;;;;;;;;19.39;40.96;102815.06;5129198;27;19915;-67
2023/04/18 07:50:42;;;;;;;;;;;;;;;19.40;41.34;102815.91;5140862;27;19923;-67
2023/04/18 07:53:07;;;;;;;;;;;;;;;19.40;41.17;102815.91;5134833;27;19987;-67
2023/04/18 07:55:33;;;;;;;;;;;;;;;19.40;41.36;102819.47;5135533;27;19916;-67
2023/04/18 07:57:58;;;;;;;;;;;;;;;19.41;40.99;102821.22;5121677;27;19919;-68
2023/04/18 08:00:23;;;;;;;;;;;;;;;19.42;41.03;102822.06;5132019;27;19919;-68
2023/04/18 08:02:48;;;;;;;;;;;;;;;19.42;41.17;102820.22;5131780;27;19923;-68
2023/04/18 08:05:13;;;;;;;;;;;;;;;19.43;41.19;102827.31;5131025;27;19912;-68
2023/04/18 08:07:39;;;;;;;;;;;;;;;19.44;41.04;102831.72;5134622;27;19919;-67
2023/04/18 08:10:04;;;;;;;;;;;;;;;19.46;41.13;102831.63;5131524;27;19927;-67
2023/04/18 08:12:29;;;;;;;;;;;;;;;19.46;40.95;102834.31;5130385;27;20001;-68
2023/04/18 08:14:55;;;;;;;;;;;;;;;19.48;40.83;102833.19;5131075;27;20360;-68
2023/04/18 08:17:21;;;;;;;;;;;;;;;19.49;41.06;102826.81;5132893;27;19979;-68
2023/04/18 08:19:46;;;;;;;;;;;;;;;19.51;41.09;102832.09;5135980;27;19939;-68
2023/04/18 08:22:11;;;;;;;;;;;;;;;19.53;41.18;102826.56;5130611;27;19912;-68
2023/04/18 08:24:37;;;;;;;;;;;;;;;19.54;40.95;102830.97;5140830;27;19922;-68
2023/04/18 08:27:02;;;;;;;;;;;;;;;19.55;40.92;102832.69;5131182;27;19915;-68
2023/04/18 08:29:27;;;;;;;;;;;;;;;19.56;40.82;102840.66;5131269;27;19912;-68
2023/04/18 08:31:52;;;;;;;;;;;;;;;19.57;40.88;102839.66;5133888;27;19912;-68
2023/04/18 08:34:17;;;;;;;;;;;;;;;19.59;40.81;102839.56;5130960;27;19922;-68
2023/04/18 08:36:43;;;;;;;;;;;;;;;19.60;40.60;102835.88;5130154;27;19923;-68
2023/04/18 08:39:08;;;;;;;;;;;;;;;19.61;40.92;102840.31;5119381;27;19919;-68
2023/04/18 08:41:35;;;;;;;;;;;;;;;19.62;40.84;102848.28;5131729;27;19916;-68
2023/04/18 08:44:00;;;;;;;;;;;;;;;19.63;40.58;102836.50;5133855;27;19957;-68
2023/04/18 08:46:25;;;;;;;;;;;;;;;19.65;40.81;102839.06;5117869;27;20006;-68
2023/04/18 08:48:51;;;;;;;;;;;;;;;19.66;40.48;102838.94;5121953;28;19979;-68
2023/04/18 08:51:16;;;;;;;;;;;;;;;19.67;40.46;102834.44;5140653;27;19907;-68
2023/04/18 08:53:43;;;;;;;;;;;;;;;19.68;40.59;102838.84;5133152;27;19916;-68
2023/04/18 08:56:09;;;;;;;;;;;;;;;19.69;40.59;102837.84;5130104;27;19955;-68
2023/04/18 08:58:34;;;;;;;;;;;;;;;19.71;40.46;102835.88;5136090;27;20720;-68
2023/04/18 09:01:00;;;;;;;;;;;;;;;19.72;40.55;102835.75;5130613;27;19946;-68
2023/04/18 09:03:36;;;;;;;;;;;;;;;19.73;40.57;102832.06;5117065;27;19988;-68
2023/04/18 09:06:08;;;;;;;;;;;;;;;19.77;40.53;102831.81;5130178;27;19971;-68
2023/04/18 09:08:34;;;;;;;;;;;;;;;19.78;40.28;102822.72;5131256;27;19916;-68
2023/04/18 09:11:19;;;;;;;;;;;;;;;19.79;40.39;102836.06;5130566;28;19916;-68
2023/04/18 09:13:45;;;;;;;;;;;;;;;19.80;40.22;102829.72;5134494;28;19920;-68
2023/04/18 09:16:12;;;;;;;;;;;;;;;19.82;40.28;102833.13;5128953;28;19923;-69
2023/04/18 09:18:37;;;;;;;;;;;;;;;19.35;39.98;102750.72;5138294;28;20073;-68
2023/04/18 09:21:28;;;;;;;;;;;;;;;19.86;40.29;102833.75;5133532;28;19994;-68
2023/04/18 09:24:27;;;;;;;;;;;;;;;19.88;40.02;102831.75;5127560;28;19922;-68
2023/04/18 09:26:53;;;;;;;;;;;;;;;19.90;40.07;102844.16;5087032;28;19915;-68
2023/04/18 09:29:21;;;;;;;;;;;;;;;19.92;40.23;102841.31;5129771;28;19965;-68
2023/04/18 09:31:59;;;;;;;;;;;;;;;19.94;40.17;102845.59;5132849;28;19912;-68
2023/04/18 09:34:25;;;;;;;;;;;;;;;19.96;39.91;102831.97;5130678;28;19912;-68
2023/04/18 09:37:16;;;;;;;;;;;;;;;19.99;40.23;102831.72;5127662;28;19920;-68
2023/04/18 09:39:42;;;;;;;;;;;;;;;20.02;39.99;102828.78;5129417;28;19915;-68
2023/04/18 09:42:09;;;;;;;;;;;;;;;20.04;39.75;102821.38;5131251;28;19926;-68
2023/04/18 09:44:34;;;;;;;;;;;;;;;20.06;39.76;102824.81;5130349;27;20022;-68
2023/04/18 09:46:59;;;;;;;;;;;;;;;20.08;39.74;102830.94;5137671;28;19918;-68
2023/04/18 09:49:25;;;;;;;;;;;;;;;20.09;39.83;102829.97;5133286;27;19916;-68
2023/04/18 09:51:51;;;;;;;;;;;;;;;20.11;39.54;102830.69;5121891;28;19927;-69
2023/04/18 09:54:16;;;;;;;;;;;;;;;20.13;39.66;102826.00;5131421;28;19913;-69
2023/04/18 09:56:44;;;;;;;;;;;;;;;20.15;39.73;102815.09;5128852;28;19915;-69
2023/04/18 09:59:10;;;;;;;;;;;;;;;20.17;39.46;102824.75;5132473;28;19912;-69
2023/04/18 10:01:35;;;;;;;;;;;;;;;20.19;39.44;102816.53;5131499;28;19919;-69
2023/04/18 10:04:02;;;;;;;;;;;;;;;20.21;39.62;102815.41;5132787;28;19922;-69
2023/04/18 10:06:27;;;;;;;;;;;;;;;20.22;39.28;102813.59;5114921;28;19958;-69
2023/04/18 10:08:53;;;;;;;;;;;;;;;20.25;39.27;102807.03;5132577;28;19915;-69
2023/04/18 10:11:18;;;;;;;;;;;;;;;20.26;39.61;102817.72;5132372;27;20395;-69
2023/04/18 10:13:43;;;;;;;;;;;;;;;20.28;39.33;102823.00;5138866;27;19924;-69
2023/04/18 10:16:09;;;;;;;;;;;;;;;20.30;39.40;102813.75;5116538;27;20698;-69
2023/04/18 10:18:35;;;;;;;;;;;;;;;20.32;39.64;102821.75;5125689;27;19912;-69
2023/04/18 10:21:02;;;;;;;;;;;;;;;20.34;39.24;102811.66;5137647;27;19911;-69
2023/04/18 10:23:30;;;;;;;;;;;;;;;20.35;39.36;102814.25;5131946;27;19912;-69
2023/04/18 10:25:55;;;;;;;;;;;;;;;20.38;39.31;102819.34;5124329;27;19967;-68
2023/04/18 10:28:20;;;;;;;;;;;;;;;20.41;39.60;102807.44;5133148;27;19919;-68
2023/04/18 10:30:45;;;;;;;;;;;;;;;20.44;39.35;102815.28;5116091;27;19970;-68
2023/04/18 10:33:23;;;;;;;;;;;;;;;20.47;39.73;102805.09;5133112;27;19919;-68
2023/04/18 10:36:06;;;;;;;;;;;;;;;20.49;39.82;102806.81;5135947;27;19915;-68
2023/04/18 10:38:32;;;;;;;;;;;;;;;20.50;39.85;102808.53;5135260;27;19977;-68
2023/04/18 10:41:15;;;;;;;;;;;;;;;20.51;39.93;102802.13;5134587;27;19924;-68
2023/04/18 10:43:59;;;;;;;;;;;;;;;20.54;39.85;102801.88;5135205;27;19912;-68
2023/04/18 10:46:25;;;;;;;;;;;;;;;20.57;39.94;102786.25;5136987;27;20032;-68
2023/04/18 10:49:09;;;;;;;;;;;;;;;20.60;40.11;102777.88;5132935;27;19920;-68
2023/04/18 10:51:34;;;;;;;;;;;;;;;20.64;39.67;102782.00;5135892;27;19983;-68
2023/04/18 10:53:59;;;;;;;;;;;;;;;20.65;39.93;102780.16;5134667;27;19919;-76
2023/04/18 10:56:26;;;;;;;;;;;;;;;20.71;40.22;102785.03;5113164;28;20006;-68
2023/04/18 10:58:52;;;;;;;;;;;;;;;20.71;39.96;102777.78;5116922;27;19972;-68
2023/04/18 11:01:23;;;;;;;;;;;;;;;20.75;39.87;102777.50;5114143;27;19923;-68
2023/04/18 11:03:48;;;;;;;;;;;;;;;20.78;39.97;102777.25;5134664;27;19986;-68
2023/04/18 11:06:13;;;;;;;;;;;;;;;20.81;40.12;102780.50;5131407;27;19911;-71
2023/04/18 11:08:38;;;;;;;;;;;;;;;20.83;40.13;102774.97;5136641;27;19933;-71
2023/04/18 11:11:07;;;;;;;;;;;;;;;20.86;40.34;102778.28;5131203;27;19964;-69
2023/04/18 11:13:33;;;;;;;;;;;;;;;20.89;40.73;102769.88;5126957;27;19920;-68
2023/04/18 11:15:58;;;;;;;;;;;;;;;20.89;40.48;102767.16;5117014;27;21890;-68
2023/04/18 11:18:23;;;;;;;;;;;;;;;20.90;40.28;102760.78;5131273;27;19971;-68
2023/04/18 11:20:49;;;;;;;;;;;;;;;20.94;40.40;102766.75;5132097;27;20610;-68
2023/04/18 11:23:15;;;;;;;;;;;;;;;20.96;40.21;102762.94;5131682;27;19912;-68
2023/04/18 11:25:43;;;;;;;;;;;;;;;20.96;40.42;102765.63;5133291;27;20257;-68
2023/04/18 11:28:12;;;;;;;;;;;;;;;20.99;40.21;102766.38;5117425;27;20006;-68
2023/04/18 11:30:38;;;;;;;;;;;;;;;21.01;40.42;102758.97;5130720;27;19927;-69
2023/04/18 11:33:04;;;;;;;;;;;;;;;21.01;40.27;102764.38;5131329;27;19912;-69
2023/04/18 11:35:29;;;;;;;;;;;;;;;21.02;40.55;102756.09;5132946;27;19998;-69
2023/04/18 11:37:54;;;;;;;;;;;;;;;21.02;40.49;102752.53;5133694;27;19922;-69
2023/04/18 11:40:20;;;;;;;;;;;;;;;21.03;40.50;102755.13;5119463;27;20009;-67
2023/04/18 11:42:45;;;;;;;;;;;;;;;21.05;40.26;102755.00;5134946;27;19915;-67
2023/04/18 11:45:14;;;;;;;;;;;;;;;21.07;40.29;102761.09;5133161;27;19922;-68
2023/04/18 11:47:40;;;;;;;;;;;;;;;21.06;40.61;102754.84;5135130;27;19923;-67
2023/04/18 11:50:06;;;;;;;;;;;;;;;21.09;40.22;102759.97;5136077;27;19915;-67
2023/04/18 11:52:32;;;;;;;;;;;;;;;21.08;40.40;102763.69;5116520;27;20006;-69
2023/04/18 11:55:19;;;;;;;;;;;;;;;21.06;40.55;102760.25;5132929;27;19919;-69
2023/04/18 11:57:54;;;;;;;;;;;;;;;21.05;40.38;102763.09;5134189;27;19979;-69
2023/04/18 12:00:29;;;;;;;;;;;;;;;21.04;40.47;102764.94;5130430;27;19916;-69
2023/04/18 12:02:54;;;;;;;;;;;;;;;21.05;40.51;102757.69;5133400;27;19915;-69
2023/04/18 12:05:23;;;;;;;;;;;;;;;21.05;40.62;102763.09;5130097;27;19911;-69
2023/04/18 12:07:49;;;;;;;;;;;;;;;21.04;40.62;102764.09;5134639;27;20276;-69
2023/04/18 12:10:20;;;;;;;;;;;;;;;21.04;40.92;102762.25;5133464;27;19916;-69
2023/04/18 12:12:52;;;;;;;;;;;;;;;21.03;40.89;102762.41;5130752;27;19965;-70
2023/04/18 12:15:17;;;;;;;;;;;;;;;21.04;40.72;102774.91;5134838;27;19971;-69
2023/04/18 12:17:43;;;;;;;;;;;;;;;21.05;40.82;102769.34;5129361;27;19923;-69
2023/04/18 12:20:12;;;;;;;;;;;;;;;21.06;40.71;102762.09;5099460;27;20679;-70
2023/04/18 12:22:41;;;;;;;;;;;;;;;21.08;40.55;102758.28;5129786;27;19955;-69
2023/04/18 12:25:35;;;;;;;;;;;;;;;21.08;40.73;102769.09;5133558;27;19919;-68
2023/04/18 12:28:04;;;;;;;;;;;;;;;21.10;40.53;102760.81;5123023;27;19945;-70
2023/04/18 12:30:30;;;;;;;;;;;;;;;21.10;40.34;102771.66;5114643;27;19934;-70